Time;durP1;ratioP1;P1;durP2;ratioP2;P2;SDS_P1;SDS_P2;PMS_P1;PMS_P2;Temp;Humidity;BMP_temperature;BMP_pressure;BME280_temperature;BME280_humidity;BME280_pressure;Samples;Min_cycle;Max_cycle;Signal;HPM_P1;HPM_P2
2023/01/27 00:02:15;;;;;;;24.05;11.80;;;;;;;7.05;100.00;96359.13;5025197;28;20080;-47
2023/01/27 00:04:43;;;;;;;24.53;12.57;;;;;;;7.33;100.00;96362.97;5035843;28;20091;-47
2023/01/27 00:07:12;;;;;;;20.90;10.80;;;;;;;7.45;100.00;96366.34;5033945;28;20077;-50
2023/01/27 00:09:41;;;;;;;24.23;11.73;;;;;;;7.53;100.00;96366.53;5029386;28;20092;-49
2023/01/27 00:15:06;;;;;;;20.92;10.70;;;;;;;7.61;100.00;96360.66;5024501;28;20085;-49
2023/01/27 00:17:36;;;;;;;20.05;10.85;;;;;;;7.91;100.00;96353.75;5031911;28;20432;-48
2023/01/27 00:20:06;;;;;;;22.60;10.80;;;;;;;7.69;100.00;96365.25;5032604;28;20275;-52
2023/01/27 00:25:20;;;;;;;6.72;4.32;;;;;;;7.28;100.00;96369.53;5029839;28;20088;-49
2023/01/27 00:27:48;;;;;;;12.20;6.28;;;;;;;7.40;100.00;96365.03;5033204;28;20056;-50
2023/01/27 00:30:17;;;;;;;13.73;8.40;;;;;;;7.48;100.00;96360.00;5032629;28;20064;-48
2023/01/27 00:35:33;;;;;;;16.55;8.45;;;;;;;7.24;100.00;96365.50;5026912;28;20104;-49
2023/01/27 00:38:01;;;;;;;14.93;8.25;;;;;;;8.00;100.00;96350.34;5025597;28;20489;-49
2023/01/27 00:40:30;;;;;;;16.35;7.95;;;;;;;7.55;100.00;96356.75;5028442;28;20461;-52
2023/01/27 00:42:58;;;;;;;14.63;7.97;;;;;;;7.87;100.00;96347.09;5033282;28;20081;-49
2023/01/27 00:48:14;;;;;;;18.60;8.50;;;;;;;7.89;97.51;96342.56;5033549;28;20077;-52
2023/01/27 00:50:42;;;;;;;20.07;10.77;;;;;;;7.91;95.50;96345.88;5028679;28;20081;-49
2023/01/27 00:53:10;;;;;;;26.15;12.55;;;;;;;7.77;99.13;96361.00;5029044;28;20543;-49
2023/01/27 00:55:38;;;;;;;10.13;6.53;;;;;;;7.54;97.02;96359.50;5031282;28;20061;-51
2023/01/27 00:58:07;;;;;;;12.57;7.93;;;;;;;7.87;99.92;96355.00;5031934;28;20089;-49
2023/01/27 01:00:35;;;;;;;12.68;7.53;;;;;;;7.81;96.67;96366.81;5030329;28;20111;-52
2023/01/27 01:03:04;;;;;;;13.40;7.70;;;;;;;8.06;93.98;96357.72;5026922;28;20088;-52
2023/01/27 01:05:34;;;;;;;22.17;11.05;;;;;;;8.27;93.47;96355.03;5028566;28;20468;-52
2023/01/27 01:08:02;;;;;;;20.42;8.88;;;;;;;8.02;94.25;96370.28;5032187;28;20076;-49
2023/01/27 01:10:30;;;;;;;22.70;10.98;;;;;;;8.12;94.35;96372.97;5033195;28;20080;-48
2023/01/27 01:12:59;;;;;;;15.48;8.60;;;;;;;8.16;94.99;96363.00;5026303;28;20100;-52
2023/01/27 01:15:27;;;;;;;24.20;10.13;;;;;;;7.98;95.78;96376.75;5027849;28;20077;-52
2023/01/27 01:17:55;;;;;;;32.20;13.88;;;;;;;8.25;92.07;96368.28;5032961;28;20072;-49
2023/01/27 01:20:24;;;;;;;18.48;9.13;;;;;;;7.87;97.69;96376.81;5023307;28;20065;-50
2023/01/27 01:22:53;;;;;;;12.63;6.90;;;;;;;7.87;97.23;96378.63;5035046;28;20076;-50
2023/01/27 01:25:22;;;;;;;9.17;5.60;;;;;;;7.46;100.00;96375.03;5050002;28;20065;-50
2023/01/27 01:27:50;;;;;;;10.85;6.43;;;;;;;7.43;100.00;96378.75;5036622;28;20495;-48
2023/01/27 01:30:20;;;;;;;13.90;8.68;;;;;;;7.69;100.00;96376.59;5033336;28;20111;-47
2023/01/27 01:32:48;;;;;;;11.82;7.80;;;;;;;7.78;100.00;96364.50;5030811;28;20073;-50
2023/01/27 01:35:16;;;;;;;10.60;5.82;;;;;;;7.16;100.00;96366.13;5031122;28;20088;-53
2023/01/27 01:37:45;;;;;;;10.07;5.07;;;;;;;7.10;100.00;96362.22;5032229;28;20080;-50
2023/01/27 01:40:15;;;;;;;10.57;6.30;;;;;;;7.17;100.00;96361.72;5027391;28;20088;-49
2023/01/27 01:42:50;;;;;;;10.30;6.47;;;;;;;6.98;100.00;96365.00;5033121;28;20049;-48
2023/01/27 01:45:52;;;;;;;12.00;7.00;;;;;;;7.32;100.00;96370.94;5030842;28;20083;-47
2023/01/27 01:48:33;;;;;;;18.55;8.98;;;;;;;7.35;100.00;96376.75;4979025;28;20070;-50
2023/01/27 01:51:07;;;;;;;13.23;7.43;;;;;;;7.20;100.00;96385.91;4977134;28;20081;-52
2023/01/27 01:53:37;;;;;;;13.43;6.55;;;;;;;6.88;100.00;96386.72;5007536;28;20133;-47
2023/01/27 01:56:11;;;;;;;13.73;7.07;;;;;;;6.71;100.00;96381.16;5029363;28;20088;-50
2023/01/27 01:58:40;;;;;;;4.72;3.28;;;;;;;6.42;100.00;96366.81;5028293;28;20105;-49
2023/01/27 02:01:14;;;;;;;7.88;5.28;;;;;;;6.71;100.00;96361.06;5049245;28;20148;-49
2023/01/27 02:03:46;;;;;;;8.55;4.85;;;;;;;6.44;100.00;96360.63;5034564;28;20490;-52
2023/01/27 02:06:15;;;;;;;11.82;6.80;;;;;;;6.27;100.00;96370.63;5027250;28;20091;-49
2023/01/27 02:08:45;;;;;;;15.95;8.48;;;;;;;6.39;100.00;96358.34;5034750;28;20068;-50
2023/01/27 02:11:15;;;;;;;15.35;7.65;;;;;;;6.27;100.00;96360.16;5025383;28;20065;-53
2023/01/27 02:13:44;;;;;;;10.88;5.55;;;;;;;6.01;100.00;96366.59;5033093;28;20065;-52
2023/01/27 02:16:13;;;;;;;8.15;4.00;;;;;;;5.82;100.00;96369.78;5023378;28;20065;-48
2023/01/27 02:18:41;;;;;;;13.10;6.97;;;;;;;6.20;100.00;96356.38;5034824;28;20124;-53
2023/01/27 02:21:10;;;;;;;14.13;7.40;;;;;;;6.30;100.00;96362.56;5029834;28;20072;-48
2023/01/27 02:23:50;;;;;;;14.48;8.07;;;;;;;6.11;100.00;96364.94;5027269;28;20453;-49
2023/01/27 02:26:21;;;;;;;14.77;7.65;;;;;;;6.15;100.00;96364.56;5028971;28;20089;-49
2023/01/27 02:28:55;;;;;;;15.80;8.07;;;;;;;6.26;100.00;96368.13;5029638;28;20069;-49
2023/01/27 02:31:23;;;;;;;15.95;7.38;;;;;;;5.97;100.00;96360.75;5025370;28;20099;-48
2023/01/27 02:33:53;;;;;;;12.52;4.85;;;;;;;5.65;100.00;96374.50;5026929;28;20138;-48
2023/01/27 02:36:22;;;;;;;11.32;5.80;;;;;;;5.43;100.00;96371.81;5028885;28;20089;-49
2023/01/27 02:38:52;;;;;;;16.20;7.38;;;;;;;5.65;100.00;96365.81;5025985;28;20072;-49
2023/01/27 02:41:25;;;;;;;17.05;7.90;;;;;;;5.70;100.00;96361.91;5024944;28;20088;-50
2023/01/27 02:43:54;;;;;;;8.48;4.45;;;;;;;5.53;100.00;96366.75;5028545;28;20092;-48
2023/01/27 02:46:23;;;;;;;14.50;7.72;;;;;;;5.62;100.00;96359.03;5045016;28;20065;-53
2023/01/27 02:48:51;;;;;;;12.98;8.43;;;;;;;5.70;100.00;96358.44;5027436;28;20100;-51
2023/01/27 02:51:20;;;;;;;15.15;7.65;;;;;;;5.81;100.00;96353.22;5027638;28;20089;-50
2023/01/27 02:53:48;;;;;;;18.25;8.65;;;;;;;5.99;100.00;96358.88;5025272;28;20073;-48
2023/01/27 02:56:16;;;;;;;23.77;10.60;;;;;;;6.02;100.00;96363.00;5023589;28;20084;-47
2023/01/27 02:58:46;;;;;;;18.48;7.22;;;;;;;5.87;100.00;96352.75;5033212;28;20084;-51
2023/01/27 03:01:14;;;;;;;15.93;6.38;;;;;;;5.39;100.00;96357.31;5023914;28;20085;-49
2023/01/27 03:03:45;;;;;;;14.70;7.78;;;;;;;5.58;100.00;96355.00;5029613;28;20091;-52
2023/01/27 03:06:17;;;;;;;20.35;8.45;;;;;;;5.78;100.00;96352.63;5023806;28;20502;-48
2023/01/27 03:08:46;;;;;;;14.07;6.88;;;;;;;5.97;100.00;96357.31;5030653;28;20472;-50
2023/01/27 03:12:18;;;;;;;21.00;8.95;;;;;;;6.21;100.00;96360.63;5032842;28;20502;-47
2023/01/27 03:14:04;;;;;;;9.40;5.25;;;;;;;5.71;100.00;96355.72;5025565;28;20085;-48
2023/01/27 03:19:19;;;;;;;12.77;6.65;;;;;;;6.14;100.00;96348.97;5026567;28;20042;-47
2023/01/27 03:21:49;;;;;;;18.77;9.48;;;;;;;6.04;100.00;96354.09;5025461;28;20077;-48
2023/01/27 03:24:18;;;;;;;23.52;10.93;;;;;;;6.12;100.00;96349.09;5030165;28;20095;-49
2023/01/27 03:26:46;;;;;;;24.83;10.98;;;;;;;6.65;100.00;96336.16;5031096;28;20085;-49
2023/01/27 03:32:03;;;;;;;26.92;10.55;;;;;;;6.86;100.00;96336.22;5023344;28;20362;-49
2023/01/27 03:34:31;;;;;;;21.30;7.90;;;;;;;6.65;100.00;96333.53;5030515;28;20516;-55
2023/01/27 03:48:05;;;;;;;15.07;6.93;;;;;;;5.67;100.00;96351.66;5018268;28;20093;-49
2023/01/27 03:50:37;;;;;;;23.88;9.40;;;;;;;5.92;100.00;96348.03;5025000;28;20089;-51
2023/01/27 03:53:05;;;;;;;20.77;9.32;;;;;;;5.56;100.00;96348.22;5024966;28;20085;-48
2023/01/27 03:55:35;;;;;;;13.55;6.78;;;;;;;5.36;100.00;96350.53;5027009;28;20077;-49
2023/01/27 03:58:16;;;;;;;20.42;9.73;;;;;;;5.85;100.00;96352.06;5021738;28;20564;-53
2023/01/27 04:00:49;;;;;;;10.57;5.68;;;;;;;5.77;100.00;96345.72;5032959;28;20555;-49
2023/01/27 04:08:50;;;;;;;27.02;11.07;;;;;;;6.39;100.00;96347.88;5020591;28;20056;-47
2023/01/27 04:14:05;;;;;;;26.60;11.27;;;;;;;6.19;100.00;96344.22;5026674;28;20085;-47
2023/01/27 04:16:36;;;;;;;9.80;5.60;;;;;;;5.80;100.00;96351.56;5026884;28;20088;-48
2023/01/27 04:19:05;;;;;;;;;;;;;;;5.83;100.00;96351.34;5031028;28;20089;-46
2023/01/27 04:21:33;;;;;;;17.98;8.43;;;;;;;6.16;100.00;96350.53;5027459;28;20011;-49
2023/01/27 04:24:02;;;;;;;27.35;10.93;;;;;;;5.99;100.00;96348.41;5025767;28;20092;-48
2023/01/27 04:26:33;;;;;;;26.13;11.60;;;;;;;6.47;100.00;96337.66;5030014;28;20477;-49
2023/01/27 04:29:02;;;;;;;28.38;12.73;;;;;;;6.73;100.00;96339.94;5026730;28;20096;-51
2023/01/27 04:31:31;;;;;;;26.02;11.30;;;;;;;6.72;100.00;96346.16;5026141;28;20045;-49
2023/01/27 04:34:01;;;;;;;22.55;10.00;;;;;;;6.47;100.00;96342.88;5028888;28;20085;-49
2023/01/27 04:36:29;;;;;;;29.40;13.23;;;;;;;6.78;100.00;96343.88;5032137;28;20080;-53
2023/01/27 04:38:58;;;;;;;35.47;13.95;;;;;;;6.82;100.00;96342.66;5029782;28;20081;-51
2023/01/27 04:41:26;;;;;;;26.83;13.05;;;;;;;6.76;100.00;96340.53;5026455;28;20099;-47
2023/01/27 04:43:55;;;;;;;32.05;14.05;;;;;;;6.84;100.00;96342.53;5026583;28;20638;-47
2023/01/27 04:46:23;;;;;;;31.73;13.25;;;;;;;7.19;100.00;96341.44;5025328;28;21139;-51
2023/01/27 04:48:51;;;;;;;29.85;13.82;;;;;;;7.19;100.00;96344.06;5029262;28;20084;-50
2023/01/27 04:51:21;;;;;;;31.17;14.35;;;;;;;6.89;100.00;96349.06;5029270;28;20084;-50
2023/01/27 04:53:49;;;;;;;31.97;14.10;;;;;;;7.32;100.00;96342.09;5030567;28;20073;-49
2023/01/27 04:56:23;;;;;;;32.10;14.35;;;;;;;6.90;100.00;96348.09;5026875;28;20084;-48
2023/01/27 04:58:51;;;;;;;29.15;13.50;;;;;;;7.13;100.00;96345.41;5027676;28;20073;-49
2023/01/27 05:01:20;;;;;;;19.63;9.05;;;;;;;7.10;100.00;96348.28;5023053;28;20549;-47
2023/01/27 05:03:49;;;;;;;32.38;12.25;;;;;;;7.12;100.00;96348.97;5028699;28;20080;-47
2023/01/27 05:06:17;;;;;;;32.08;12.98;;;;;;;7.12;100.00;96346.34;5029328;28;20080;-50
2023/01/27 05:08:47;;;;;;;27.73;12.43;;;;;;;7.07;100.00;96338.88;5029546;28;20351;-50
2023/01/27 05:11:15;;;;;;;30.30;13.57;;;;;;;7.11;100.00;96342.91;5022526;28;20245;-50
2023/01/27 05:13:44;;;;;;;27.95;12.63;;;;;;;7.26;100.00;96347.81;5026392;28;20837;-48
2023/01/27 05:16:14;;;;;;;25.63;11.52;;;;;;;7.39;100.00;96348.47;5025325;28;20108;-47
2023/01/27 05:18:43;;;;;;;28.63;12.18;;;;;;;7.40;100.00;96346.69;5026195;28;20069;-48
2023/01/27 05:21:13;;;;;;;28.95;11.85;;;;;;;7.12;100.00;96348.97;5023997;28;20537;-51
2023/01/27 05:23:41;;;;;;;22.67;10.80;;;;;;;7.34;100.00;96351.50;5030201;28;20081;-49
2023/01/27 05:26:12;;;;;;;23.88;9.48;;;;;;;6.79;100.00;96355.19;5031026;28;20084;-49
2023/01/27 05:28:42;;;;;;;27.20;11.15;;;;;;;7.36;100.00;96356.59;5021118;28;20772;-51
2023/01/27 05:31:12;;;;;;;25.67;12.70;;;;;;;6.96;100.00;96361.69;5025846;28;20072;-52
2023/01/27 05:33:42;;;;;;;26.73;11.48;;;;;;;6.66;100.00;96360.56;5029859;28;20789;-48
2023/01/27 05:36:12;;;;;;;26.27;10.13;;;;;;;7.09;100.00;96362.34;5021905;28;20089;-52
2023/01/27 05:38:40;;;;;;;22.37;10.47;;;;;;;7.26;100.00;96363.56;5030352;28;20492;-49
2023/01/27 05:41:11;;;;;;;24.42;10.32;;;;;;;6.14;100.00;96378.63;5025198;28;20502;-50
2023/01/27 05:43:42;;;;;;;24.15;10.52;;;;;;;6.85;100.00;96363.38;5026283;28;20073;-54
2023/01/27 05:46:12;;;;;;;24.77;10.35;;;;;;;6.95;100.00;96376.59;5025976;28;20081;-53
2023/01/27 05:48:42;;;;;;;22.52;10.10;;;;;;;6.62;100.00;96382.75;5022564;28;20537;-48
2023/01/27 05:51:11;;;;;;;18.80;8.18;;;;;;;6.50;100.00;96381.91;5023932;28;20073;-51
2023/01/27 05:53:42;;;;;;;21.95;9.23;;;;;;;6.59;100.00;96382.97;5023370;28;20450;-46
2023/01/27 05:56:15;;;;;;;22.33;9.68;;;;;;;6.45;100.00;96385.88;5028181;28;20476;-49
2023/01/27 05:58:44;;;;;;;24.77;11.02;;;;;;;6.60;100.00;96387.25;5027051;28;20073;-50
2023/01/27 06:01:14;;;;;;;27.48;11.20;;;;;;;6.71;100.00;96395.13;5019482;28;20084;-46
2023/01/27 06:03:42;;;;;;;23.63;11.35;;;;;;;7.21;100.00;96398.06;5022564;28;20108;-48
2023/01/27 06:06:12;;;;;;;24.67;10.98;;;;;;;7.03;100.00;96391.69;5020602;28;20467;-47
2023/01/27 06:08:41;;;;;;;23.35;10.45;;;;;;;7.16;100.00;96394.97;5024548;28;20099;-47
2023/01/27 06:11:09;;;;;;;27.58;11.40;;;;;;;7.28;100.00;96388.72;5025466;28;20077;-47
2023/01/27 06:13:39;;;;;;;19.50;9.38;;;;;;;7.22;100.00;96397.09;5020404;28;20584;-49
2023/01/27 06:16:09;;;;;;;28.13;11.67;;;;;;;7.32;100.00;96395.38;5020416;28;20490;-48
2023/01/27 06:18:38;;;;;;;28.85;11.35;;;;;;;7.16;100.00;96402.00;5024092;28;20507;-45
2023/01/27 06:21:08;;;;;;;24.02;9.38;;;;;;;7.22;100.00;96407.56;5025934;28;20089;-50
2023/01/27 06:23:37;;;;;;;32.78;11.18;;;;;;;6.64;100.00;96407.88;5020003;28;20077;-47
2023/01/27 06:26:08;;;;;;;25.13;10.57;;;;;;;6.92;100.00;96404.81;5022113;28;20149;-46
2023/01/27 06:28:36;;;;;;;;;;;;;;;7.03;100.00;96407.41;5018042;28;20096;-51
2023/01/27 06:31:06;;;;;;;23.50;9.93;;;;;;;6.63;100.00;96419.28;5027709;28;19972;-46
2023/01/27 06:33:34;;;;;;;;;;;;;;;6.57;100.00;96424.16;5020698;28;20085;-51
2023/01/27 06:36:04;;;;;;;21.98;9.23;;;;;;;6.32;100.00;96427.88;5028259;28;19975;-51
2023/01/27 06:38:33;;;;;;;21.85;10.07;;;;;;;5.99;100.00;96432.16;5025784;28;20084;-49
2023/01/27 06:41:01;;;;;;;23.67;9.50;;;;;;;6.76;100.00;96434.03;5022892;28;20089;-50
2023/01/27 06:43:29;;;;;;;19.15;9.15;;;;;;;6.31;100.00;96432.28;5025187;28;20085;-50
2023/01/27 06:45:58;;;;;;;23.92;9.60;;;;;;;6.23;100.00;96432.06;5023244;28;20088;-48
2023/01/27 06:48:28;;;;;;;21.70;9.57;;;;;;;6.66;100.00;96426.06;5024948;28;20150;-47
2023/01/27 06:50:57;;;;;;;22.20;9.10;;;;;;;7.12;100.00;96422.38;5023993;28;20081;-50
2023/01/27 06:53:25;;;;;;;20.65;9.23;;;;;;;6.89;100.00;96432.94;5026356;28;20081;-51
2023/01/27 06:55:57;;;;;;;23.80;10.18;;;;;;;7.40;100.00;96423.63;5015408;28;20505;-50
2023/01/27 06:58:25;;;;;;;22.85;10.23;;;;;;;7.27;100.00;96436.91;5024043;28;20095;-52
2023/01/27 07:00:53;;;;;;;23.77;11.13;;;;;;;6.82;100.00;96434.41;5027743;28;20617;-48
2023/01/27 07:03:22;;;;;;;24.92;10.52;;;;;;;6.86;100.00;96442.84;5019620;28;20074;-53
2023/01/27 07:05:52;;;;;;;26.90;10.45;;;;;;;7.02;100.00;96426.72;5014331;28;20120;-47
2023/01/27 07:08:20;;;;;;;;;;;;;;;7.11;100.00;96439.09;5017808;28;20096;-48
2023/01/27 07:10:49;;;;;;;23.33;10.77;;;;;;;7.34;100.00;96434.59;5027569;28;19968;-47
2023/01/27 07:13:17;;;;;;;27.40;10.68;;;;;;;7.21;100.00;96426.91;5022690;28;20073;-50
2023/01/27 07:15:46;;;;;;;23.15;10.40;;;;;;;7.49;100.00;96425.47;5026456;28;20104;-46
2023/01/27 07:18:14;;;;;;;26.33;11.05;;;;;;;7.35;100.00;96421.34;5013291;28;20103;-49
2023/01/27 07:20:43;;;;;;;21.73;9.77;;;;;;;6.87;100.00;96432.22;5025922;28;20084;-47
2023/01/27 07:23:13;;;;;;;23.35;9.02;;;;;;;7.36;100.00;96430.06;5023518;28;20716;-49
2023/01/27 07:25:43;;;;;;;26.47;11.77;;;;;;;7.66;100.00;96431.13;5024020;28;20103;-49
2023/01/27 07:28:11;;;;;;;25.55;10.32;;;;;;;7.14;100.00;96420.47;5027099;28;20466;-54
2023/01/27 07:30:40;;;;;;;22.80;10.13;;;;;;;7.39;100.00;96424.56;5028898;28;20085;-50
2023/01/27 07:33:09;;;;;;;21.25;7.70;;;;;;;7.10;100.00;96434.81;5025602;28;20537;-52
2023/01/27 07:35:39;;;;;;;21.20;9.63;;;;;;;7.53;100.00;96421.63;5018200;28;20077;-48
2023/01/27 07:38:08;;;;;;;25.77;11.13;;;;;;;7.37;100.00;96423.88;5031208;28;20085;-52
2023/01/27 07:40:38;;;;;;;23.08;10.38;;;;;;;7.07;100.00;96433.25;5020016;28;20081;-49
2023/01/27 07:43:06;;;;;;;19.77;9.53;;;;;;;6.96;100.00;96430.66;5024466;28;20086;-48
2023/01/27 07:45:34;;;;;;;22.73;9.50;;;;;;;6.91;100.00;96419.72;5030602;28;20088;-49
2023/01/27 07:48:05;;;;;;;23.10;10.60;;;;;;;6.55;100.00;96428.72;5025158;28;20481;-46
2023/01/27 07:50:33;;;;;;;23.35;9.75;;;;;;;6.76;100.00;96427.00;5031012;28;20089;-49
2023/01/27 07:53:02;;;;;;;23.77;9.38;;;;;;;6.60;100.00;96424.75;5030566;28;20077;-45
2023/01/27 07:55:32;;;;;;;21.15;10.23;;;;;;;6.63;100.00;96428.94;5018906;28;20097;-48
2023/01/27 07:58:03;;;;;;;22.20;11.10;;;;;;;7.20;100.00;96420.00;5024407;28;20111;-46
2023/01/27 08:00:32;;;;;;;26.43;9.63;;;;;;;7.13;100.00;96424.06;5022308;28;20541;-50
2023/01/27 08:03:01;;;;;;;20.77;9.63;;;;;;;6.97;100.00;96431.50;5030821;28;21216;-49
2023/01/27 08:05:32;;;;;;;23.48;10.35;;;;;;;7.02;100.00;96431.94;5030342;28;20099;-51
2023/01/27 08:08:03;;;;;;;15.93;5.90;;;;;;;6.78;100.00;96438.22;5022246;28;20097;-49
2023/01/27 08:10:31;;;;;;;;;;;;;;;7.16;100.00;96439.56;5022812;28;22843;-50
2023/01/27 08:12:59;;;;;;;21.23;7.63;;;;;;;7.11;100.00;96441.72;5030402;28;19979;-46
2023/01/27 08:15:29;;;;;;;24.25;10.57;;;;;;;7.35;100.00;96447.59;5026935;28;20477;-47
2023/01/27 08:17:58;;;;;;;22.97;9.47;;;;;;;7.48;100.00;96447.41;5028660;28;20092;-51
2023/01/27 08:20:27;;;;;;;24.55;9.85;;;;;;;7.13;100.00;96450.28;5029733;28;20089;-50
2023/01/27 08:22:56;;;;;;;25.02;9.70;;;;;;;7.36;100.00;96448.41;5027238;28;20080;-54
2023/01/27 08:25:24;;;;;;;22.38;9.30;;;;;;;7.15;100.00;96453.59;5023555;28;20085;-52
2023/01/27 08:27:53;;;;;;;23.48;10.68;;;;;;;7.55;100.00;96450.38;5023087;28;20096;-50
2023/01/27 08:30:23;;;;;;;22.02;10.32;;;;;;;7.33;100.00;96456.56;5022997;28;20515;-49
2023/01/27 08:32:52;;;;;;;21.10;10.45;;;;;;;7.44;100.00;96456.50;5022911;28;20073;-50
2023/01/27 08:35:21;;;;;;;18.03;8.40;;;;;;;7.84;100.00;96445.31;5024302;28;20096;-53
2023/01/27 08:37:50;;;;;;;19.77;8.93;;;;;;;8.07;95.00;96448.66;5029904;28;20045;-47
2023/01/27 08:40:18;;;;;;;18.88;8.63;;;;;;;8.27;91.15;96453.06;5029612;28;20084;-51
2023/01/27 08:42:49;;;;;;;20.35;10.30;;;;;;;7.98;90.48;96463.41;5030641;28;20081;-54
2023/01/27 08:45:18;;;;;;;24.02;10.63;;;;;;;8.20;85.56;96469.47;5030076;28;20552;-47
2023/01/27 08:47:46;;;;;;;21.15;9.70;;;;;;;8.36;85.20;96463.75;5028240;28;20590;-46
2023/01/27 08:50:17;;;;;;;24.05;9.80;;;;;;;8.64;81.71;96462.25;5024358;28;20596;-49
2023/01/27 08:52:45;;;;;;;19.75;9.45;;;;;;;8.21;82.95;96466.72;5026584;28;20076;-52
2023/01/27 08:55:14;;;;;;;20.10;9.55;;;;;;;8.23;86.56;96471.84;5020245;28;20092;-51
2023/01/27 08:57:42;;;;;;;22.70;10.18;;;;;;;8.06;90.14;96471.47;5024012;28;20080;-46
2023/01/27 09:00:12;;;;;;;14.18;7.32;;;;;;;7.65;95.86;96474.91;5030162;28;20092;-47
2023/01/27 09:02:41;;;;;;;;;;;;;;;7.31;100.00;96485.53;5023230;28;20077;-51
2023/01/27 09:05:10;;;;;;;23.15;9.48;;;;;;;7.32;100.00;96479.31;5027209;28;19972;-51
2023/01/27 09:07:40;;;;;;;16.13;7.88;;;;;;;6.95;100.00;96489.31;5025341;28;20081;-49
2023/01/27 09:10:09;;;;;;;17.10;7.53;;;;;;;6.84;100.00;96492.75;5026902;28;20141;-49
2023/01/27 09:12:43;;;;;;;19.25;8.98;;;;;;;6.75;100.00;96487.44;5021903;28;20482;-47
2023/01/27 09:15:12;;;;;;;24.33;9.60;;;;;;;7.07;100.00;96480.44;5029163;28;20083;-52
2023/01/27 09:17:40;;;;;;;25.52;11.75;;;;;;;7.44;100.00;96490.63;5023178;28;20521;-52
2023/01/27 09:20:10;;;;;;;17.88;8.20;;;;;;;6.98;100.00;96489.03;5023585;28;20088;-47
2023/01/27 09:22:41;;;;;;;25.92;10.88;;;;;;;7.29;100.00;96483.97;5026515;28;20077;-48
2023/01/27 09:25:14;;;;;;;28.33;13.05;;;;;;;7.22;100.00;96486.25;5026186;28;20096;-46
2023/01/27 09:27:42;;;;;;;16.98;8.05;;;;;;;6.98;100.00;96489.03;5021636;28;20069;-45
2023/01/27 09:30:12;;;;;;;20.30;9.70;;;;;;;7.24;100.00;96488.78;5020469;28;20568;-45
2023/01/27 09:32:41;;;;;;;17.35;8.85;;;;;;;7.16;100.00;96489.38;5029044;28;20084;-52
2023/01/27 09:35:10;;;;;;;15.13;7.45;;;;;;;6.88;100.00;96491.59;5023550;28;20108;-47
2023/01/27 09:37:42;;;;;;;19.58;9.43;;;;;;;7.29;100.00;96486.59;5025586;28;20068;-44
2023/01/27 09:40:17;;;;;;;20.52;8.55;;;;;;;7.37;100.00;96485.03;5018719;28;20089;-47
2023/01/27 09:42:54;;;;;;;24.23;11.07;;;;;;;7.11;100.00;96483.66;5017472;28;20160;-50
2023/01/27 09:45:43;;;;;;;18.17;8.90;;;;;;;7.36;100.00;96490.38;5020269;28;20476;-46
2023/01/27 09:48:32;;;;;;;18.30;8.82;;;;;;;7.34;98.18;96493.16;5025614;28;20085;-50
2023/01/27 09:51:05;;;;;;;14.88;7.82;;;;;;;7.37;99.26;96499.94;5026340;28;20085;-48
2023/01/27 09:54:02;;;;;;;22.35;10.45;;;;;;;7.60;97.13;96490.19;5024148;28;20613;-47
2023/01/27 09:56:46;;;;;;;24.65;10.80;;;;;;;7.63;93.69;96492.56;5022716;28;20085;-47
2023/01/27 09:59:26;;;;;;;24.33;10.02;;;;;;;7.67;90.80;96498.38;5023849;28;20088;-49
2023/01/27 10:02:01;;;;;;;18.08;8.55;;;;;;;7.65;90.97;96490.66;5013847;28;20698;-49
2023/01/27 10:04:46;;;;;;;21.17;9.30;;;;;;;7.72;89.43;96489.19;5023396;28;20088;-49
2023/01/27 10:07:25;;;;;;;56.22;20.02;;;;;;;7.87;86.83;96494.97;5022458;28;20115;-46
2023/01/27 10:10:06;;;;;;;46.25;19.70;;;;;;;7.68;89.72;96505.31;5025078;28;20085;-46
2023/01/27 10:12:47;;;;;;;22.42;10.30;;;;;;;7.81;88.61;96506.81;5019547;28;20081;-45
2023/01/27 10:15:25;;;;;;;19.10;8.63;;;;;;;7.70;89.47;96491.09;5019284;28;20085;-52
2023/01/27 10:18:00;;;;;;;19.88;9.27;;;;;;;7.13;93.14;96492.25;5022179;28;20096;-45
2023/01/27 10:20:34;;;;;;;24.02;10.80;;;;;;;7.55;93.86;96500.25;5021628;28;20557;-53
2023/01/27 10:23:13;;;;;;;23.25;11.48;;;;;;;7.78;91.27;96504.44;5024724;28;20076;-47
2023/01/27 10:25:53;;;;;;;25.95;11.93;;;;;;;7.92;89.21;96505.94;5024643;28;20080;-52
2023/01/27 10:28:23;;;;;;;28.05;12.13;;;;;;;7.97;88.42;96508.16;5024608;28;20085;-52
2023/01/27 10:30:55;;;;;;;29.63;12.40;;;;;;;7.38;95.45;96509.47;5022307;28;20125;-46
2023/01/27 10:33:34;;;;;;;24.60;11.32;;;;;;;8.16;87.99;96510.94;5016599;28;20082;-48
2023/01/27 10:36:06;;;;;;;26.33;11.02;;;;;;;8.08;84.85;96500.22;5027941;28;20466;-47
2023/01/27 10:38:38;;;;;;;24.42;11.43;;;;;;;8.52;82.19;96508.81;5027854;28;20085;-49
2023/01/27 10:41:17;;;;;;;27.73;12.50;;;;;;;8.52;79.67;96508.81;5025743;28;20089;-46
2023/01/27 10:43:55;;;;;;;24.73;11.73;;;;;;;8.49;77.12;96509.91;5022531;28;20558;-48
2023/01/27 10:46:30;;;;;;;14.85;7.28;;;;;;;7.81;81.39;96501.56;5019553;28;20088;-50
2023/01/27 10:49:03;;;;;;;29.88;12.55;;;;;;;8.17;80.46;96503.88;5027046;28;20331;-50
2023/01/27 10:51:35;;;;;;;26.83;11.73;;;;;;;8.11;80.81;96505.22;5019653;28;20537;-50
2023/01/27 10:54:07;;;;;;;27.20;11.45;;;;;;;7.94;83.90;96503.16;5026454;28;20084;-49
2023/01/27 10:56:41;;;;;;;24.38;11.15;;;;;;;7.80;82.87;96505.13;5023534;28;20084;-53
2023/01/27 10:59:15;;;;;;;17.80;8.85;;;;;;;7.57;87.67;96501.78;5025545;28;20088;-47
2023/01/27 11:01:46;;;;;;;25.65;11.98;;;;;;;7.88;84.43;96508.91;5022581;28;20564;-49
2023/01/27 11:04:18;;;;;;;26.88;11.48;;;;;;;7.97;84.80;96505.53;5024909;28;20085;-51
2023/01/27 11:06:47;;;;;;;24.73;12.00;;;;;;;8.10;85.33;96503.56;5029935;28;20084;-52
2023/01/27 11:09:25;;;;;;;21.80;10.02;;;;;;;8.07;82.59;96501.19;5030509;28;20093;-46
2023/01/27 11:11:58;;;;;;;25.67;12.20;;;;;;;8.54;79.83;96496.38;5031382;28;20104;-51
2023/01/27 11:14:28;;;;;;;26.67;10.82;;;;;;;8.31;79.07;96498.28;5031274;28;20467;-45
2023/01/27 11:17:00;;;;;;;23.48;12.10;;;;;;;8.44;79.83;96503.38;5030345;28;20084;-48
2023/01/27 11:19:35;;;;;;;16.88;9.00;;;;;;;8.24;80.30;96510.28;5028133;28;20084;-47
2023/01/27 11:22:06;;;;;;;27.75;12.65;;;;;;;8.45;82.07;96500.63;5030757;28;20092;-50
2023/01/27 11:24:43;;;;;;;22.05;8.73;;;;;;;7.88;83.50;96504.53;5029382;28;20085;-51
2023/01/27 11:27:22;;;;;;;16.67;8.73;;;;;;;8.05;82.49;96508.34;5022718;28;20096;-54
2023/01/27 11:29:55;;;;;;;17.20;7.95;;;;;;;8.00;81.27;96502.66;5029021;28;20085;-50
2023/01/27 11:32:33;;;;;;;24.75;10.50;;;;;;;7.87;84.40;96502.00;5022713;28;20088;-52
2023/01/27 11:35:04;;;;;;;22.20;10.00;;;;;;;8.05;84.85;96492.59;5027398;28;20085;-50
2023/01/27 11:37:35;;;;;;;20.27;8.23;;;;;;;8.00;84.26;96495.59;5029027;28;20089;-50
2023/01/27 11:40:05;;;;;;;24.58;10.93;;;;;;;7.55;92.30;96493.19;5028179;28;20087;-49
2023/01/27 11:42:35;;;;;;;30.67;12.88;;;;;;;8.00;89.10;96486.91;5028275;28;20085;-48
2023/01/27 11:45:04;;;;;;;26.10;12.25;;;;;;;7.70;91.39;96493.72;5027437;28;20534;-48
2023/01/27 11:47:37;;;;;;;27.88;11.85;;;;;;;7.72;95.18;96494.44;5024690;28;20081;-47
2023/01/27 11:50:07;;;;;;;19.30;10.20;;;;;;;7.42;96.03;96487.28;5029020;28;20085;-49
2023/01/27 11:52:35;;;;;;;25.85;11.55;;;;;;;7.58;99.83;96485.06;5021345;28;20572;-50
2023/01/27 11:55:06;;;;;;;27.17;11.65;;;;;;;7.87;95.52;96484.47;5031011;28;20144;-49
2023/01/27 11:57:41;;;;;;;28.45;11.50;;;;;;;7.93;94.49;96485.75;5023957;28;20096;-46
2023/01/27 12:00:19;;;;;;;25.92;11.20;;;;;;;7.87;93.28;96488.88;5027168;28;20112;-47
2023/01/27 12:02:53;;;;;;;25.95;11.48;;;;;;;7.95;92.54;96484.66;5023287;28;20085;-46
2023/01/27 12:05:28;;;;;;;26.48;10.82;;;;;;;8.17;87.65;96475.00;5024699;28;20533;-45
2023/01/27 12:07:59;;;;;;;23.60;10.60;;;;;;;8.03;88.59;96476.16;5020928;28;20088;-48
2023/01/27 12:10:30;;;;;;;25.73;11.20;;;;;;;8.63;83.36;96466.66;5024783;28;20092;-48
2023/01/27 12:13:02;;;;;;;23.98;10.35;;;;;;;8.56;78.39;96465.53;5027571;28;20485;-50
2023/01/27 12:15:31;;;;;;;17.05;6.68;;;;;;;8.35;74.33;96469.97;5029783;28;20087;-49
2023/01/27 12:18:01;;;;;;;25.73;11.47;;;;;;;8.72;76.72;96465.03;5029669;28;20097;-50
2023/01/27 12:20:32;;;;;;;11.65;6.35;;;;;;;8.32;73.79;96471.03;5030818;28;20085;-49